createdAt,value
2022-11-19T00:00:08.464Z,5.13
2022-11-19T00:03:13.715Z,5.10
2022-11-19T00:06:21.383Z,4.73
2022-11-19T00:09:23.358Z,5.13
2022-11-19T00:12:44.107Z,4.57
2022-11-19T00:15:46.463Z,5.10
2022-11-19T00:18:50.522Z,5.23
2022-11-19T00:21:52.583Z,5.20
2022-11-19T00:24:54.626Z,4.47
2022-11-19T00:27:58.894Z,4.57
2022-11-19T00:31:03.192Z,5.07
2022-11-19T00:34:05.424Z,5.13
2022-11-19T00:37:07.497Z,4.37
2022-11-19T00:40:11.999Z,5.73
2022-11-19T00:43:32.958Z,4.38
2022-11-19T00:46:35.024Z,4.70
2022-11-19T00:49:38.955Z,4.43
2022-11-19T00:52:40.976Z,4.53
2022-11-19T00:55:44.655Z,4.00
2022-11-19T00:58:47.674Z,4.10
2022-11-19T01:01:49.771Z,3.10
2022-11-19T01:04:51.781Z,5.70
2022-11-19T01:07:54.414Z,3.27
2022-11-19T01:10:57.187Z,4.40
2022-11-19T01:14:01.023Z,4.70
2022-11-19T01:17:05.890Z,3.93
2022-11-19T01:20:08.946Z,7.27
2022-11-19T01:23:11.738Z,3.83
2022-11-19T01:26:17.152Z,3.60
2022-11-19T01:29:20.426Z,4.20
2022-11-19T01:32:22.756Z,4.13
2022-11-19T01:35:25.912Z,3.90
2022-11-19T01:38:29.868Z,4.93
2022-11-19T01:41:34.025Z,2.67
2022-11-19T01:45:01.765Z,3.78
2022-11-19T01:48:06.600Z,4.63
2022-11-19T01:54:26.689Z,2.67
2022-11-19T01:57:28.798Z,2.77
2022-11-19T02:00:32.418Z,3.57
2022-11-19T02:03:38.497Z,3.47
2022-11-19T02:06:42.071Z,3.13
2022-11-19T02:09:45.199Z,3.30
2022-11-19T02:13:25.186Z,3.20
2022-11-19T02:16:51.459Z,3.27
2022-11-19T02:20:24.533Z,2.10
2022-11-19T02:23:47.649Z,3.73
2022-11-19T02:27:23.875Z,3.10
2022-11-19T02:30:50.631Z,3.00
2022-11-19T02:34:08.985Z,2.83
2022-11-19T02:37:22.180Z,2.87
2022-11-19T02:40:34.079Z,2.17
2022-11-19T02:43:39.961Z,2.70
2022-11-19T02:46:42.500Z,2.63
2022-11-19T02:49:45.358Z,3.43
2022-11-19T02:52:48.752Z,2.03
2022-11-19T02:56:13.876Z,2.40
2022-11-19T02:59:39.144Z,3.20
2022-11-19T03:03:13.039Z,1.80
2022-11-19T03:06:20.578Z,2.67
2022-11-19T03:09:23.594Z,2.47
2022-11-19T03:12:34.483Z,1.83
2022-11-19T03:15:54.894Z,3.17
2022-11-19T03:19:31.892Z,2.20
2022-11-19T03:22:35.889Z,2.13
2022-11-19T03:26:04.129Z,1.95
2022-11-19T03:29:10.488Z,1.57
2022-11-19T03:32:18.768Z,1.70
2022-11-19T03:35:26.310Z,2.07
2022-11-19T03:38:32.990Z,2.17
2022-11-19T03:41:37.975Z,2.37
2022-11-19T03:44:46.147Z,2.17
2022-11-19T03:47:50.536Z,2.10
2022-11-19T03:50:58.241Z,1.52
2022-11-19T03:54:00.388Z,1.53
2022-11-19T03:57:05.801Z,1.43
2022-11-19T04:00:08.980Z,1.55
2022-11-19T04:03:18.108Z,1.30
2022-11-19T04:06:20.088Z,1.23
2022-11-19T04:09:22.392Z,1.90
2022-11-19T04:12:25.682Z,3.47
2022-11-19T04:15:27.907Z,1.60
2022-11-19T04:18:30.465Z,2.27
2022-11-19T04:21:32.546Z,2.03
2022-11-19T04:24:34.779Z,1.77
2022-11-19T04:27:37.253Z,1.50
2022-11-19T04:30:39.455Z,1.73
2022-11-19T04:33:41.484Z,1.50
2022-11-19T04:36:43.584Z,2.17
2022-11-19T04:39:45.727Z,1.50
2022-11-19T04:42:47.761Z,1.27
2022-11-19T04:45:49.912Z,2.60
2022-11-19T04:48:52.097Z,1.30
2022-11-19T04:51:54.392Z,1.40
2022-11-19T04:54:56.396Z,2.70
2022-11-19T04:57:58.403Z,1.70
2022-11-19T05:01:00.454Z,1.93
2022-11-19T05:04:06.634Z,2.33
2022-11-19T05:07:08.721Z,2.50
2022-11-19T05:10:11.255Z,1.60
2022-11-19T05:13:13.455Z,2.10
2022-11-19T05:16:20.222Z,1.70
2022-11-19T05:19:23.361Z,1.50
2022-11-19T05:22:25.606Z,1.20
2022-11-19T05:25:27.972Z,2.10
2022-11-19T05:28:38.403Z,2.10
2022-11-19T05:31:41.615Z,1.37
2022-11-19T05:34:44.919Z,1.57
2022-11-19T05:37:50.150Z,2.80
2022-11-19T05:40:52.159Z,2.70
2022-11-19T05:43:54.298Z,1.80
2022-11-19T05:46:57.576Z,2.23
2022-11-19T05:49:59.804Z,1.90
2022-11-19T05:53:02.449Z,3.00
2022-11-19T05:56:04.726Z,1.87
2022-11-19T05:59:06.807Z,1.60
2022-11-19T06:02:09.417Z,2.30
2022-11-19T06:05:12.049Z,2.00
2022-11-19T06:08:15.194Z,1.33
2022-11-19T06:11:36.365Z,1.80
2022-11-19T06:14:38.464Z,3.40
2022-11-19T06:17:40.493Z,2.30
2022-11-19T06:20:42.574Z,3.73
2022-11-19T06:23:44.665Z,1.20
2022-11-19T06:26:47.187Z,3.53
2022-11-19T06:29:53.500Z,2.20
2022-11-19T06:32:58.034Z,2.77
2022-11-19T06:36:02.229Z,2.97
2022-11-19T06:39:05.222Z,1.40
2022-11-19T06:42:25.991Z,3.10
2022-11-19T06:45:30.910Z,2.27
2022-11-19T06:48:33.009Z,2.00
2022-11-19T06:51:35.683Z,1.80
2022-11-19T06:54:41.722Z,2.00
2022-11-19T06:57:45.653Z,1.63
2022-11-19T07:00:47.784Z,1.80
2022-11-19T07:03:52.117Z,2.23
2022-11-19T07:06:54.140Z,2.63
2022-11-19T07:09:56.292Z,1.83
2022-11-19T07:12:58.481Z,1.97
2022-11-19T07:16:02.956Z,2.20
2022-11-19T07:19:08.045Z,3.37
2022-11-19T07:22:10.651Z,2.10
2022-11-19T07:25:13.423Z,3.27
2022-11-19T07:28:15.825Z,2.83
2022-11-19T07:31:17.861Z,2.87
2022-11-19T07:34:20.664Z,2.57
2022-11-19T07:37:22.729Z,2.40
2022-11-19T07:40:25.708Z,4.10
2022-11-19T07:43:28.891Z,2.63
2022-11-19T07:46:31.021Z,2.83
2022-11-19T07:49:33.326Z,2.67
2022-11-19T07:52:35.468Z,2.83
2022-11-19T07:55:37.577Z,4.73
2022-11-19T07:58:39.637Z,3.40
2022-11-19T08:01:42.147Z,4.13
2022-11-19T08:04:44.301Z,2.63
2022-11-19T08:07:46.327Z,4.40
2022-11-19T08:10:48.397Z,2.38
2022-11-19T08:13:50.962Z,3.33
2022-11-19T08:17:12.264Z,2.97
2022-11-19T08:20:19.432Z,4.65
2022-11-19T08:23:24.251Z,3.13
2022-11-19T08:26:26.253Z,2.72
2022-11-19T08:29:28.324Z,2.03
2022-11-19T08:32:30.387Z,2.70
2022-11-19T08:35:32.537Z,2.90
2022-11-19T08:38:38.441Z,2.05
2022-11-19T08:41:59.360Z,2.20
2022-11-19T08:45:01.620Z,1.70
2022-11-19T08:48:10.599Z,2.03
2022-11-19T08:51:15.017Z,2.25
2022-11-19T08:54:17.463Z,2.83
2022-11-19T08:57:20.778Z,2.30
2022-11-19T09:00:23.031Z,2.85
2022-11-19T09:03:25.777Z,1.35
2022-11-19T09:06:27.884Z,1.55
2022-11-19T09:09:30.006Z,1.65
2022-11-19T09:12:32.071Z,1.65
2022-11-19T09:15:34.115Z,1.85
2022-11-19T09:18:40.284Z,1.92
2022-11-19T09:21:42.471Z,1.55
2022-11-19T09:24:44.565Z,1.20
2022-11-19T09:27:46.561Z,2.13
2022-11-19T09:30:59.097Z,1.90
2022-11-19T09:34:05.477Z,1.30
2022-11-19T09:37:10.661Z,1.45
2022-11-19T09:40:19.191Z,1.38
2022-11-19T09:43:47.149Z,1.38
2022-11-19T09:47:19.623Z,1.92
2022-11-19T09:50:23.430Z,1.17
2022-11-19T09:56:41.632Z,1.48
2022-11-19T09:59:43.752Z,1.30
2022-11-19T10:02:46.044Z,0.90
2022-11-19T10:06:13.791Z,1.50
2022-11-19T10:09:38.772Z,1.10
2022-11-19T10:12:53.179Z,1.25
2022-11-19T10:16:13.617Z,1.15
2022-11-19T10:19:39.846Z,1.15
2022-11-19T10:22:57.531Z,1.13
2022-11-19T10:26:06.430Z,1.27
2022-11-19T10:29:23.624Z,0.52
2022-11-19T10:32:44.223Z,2.33
2022-11-19T10:35:50.868Z,1.13
2022-11-19T10:38:58.334Z,1.10
2022-11-19T10:42:19.827Z,2.60
2022-11-19T10:45:25.251Z,1.50
2022-11-19T10:48:41.739Z,1.15
2022-11-19T10:51:44.851Z,1.67
2022-11-19T10:54:48.451Z,1.50
2022-11-19T10:57:56.711Z,2.05
2022-11-19T11:01:04.451Z,1.08
2022-11-19T11:04:17.616Z,1.40
2022-11-19T11:07:23.124Z,1.00
2022-11-19T11:10:38.825Z,1.45
2022-11-19T11:14:01.833Z,1.48
2022-11-19T11:17:06.537Z,1.75
2022-11-19T11:20:24.485Z,1.00
2022-11-19T11:23:31.146Z,2.50
2022-11-19T11:26:37.966Z,2.13
2022-11-19T11:29:40.346Z,2.45
2022-11-19T11:32:42.852Z,1.73
2022-11-19T11:35:45.952Z,2.00
2022-11-19T11:38:50.813Z,2.20
2022-11-19T11:42:05.298Z,2.38
2022-11-19T11:45:33.416Z,1.65
2022-11-19T11:48:43.719Z,1.50
2022-11-19T11:51:46.042Z,1.77
2022-11-19T11:55:16.193Z,1.60
2022-11-19T11:58:27.160Z,1.75
2022-11-19T12:01:29.201Z,1.90
2022-11-19T12:04:31.772Z,2.13
2022-11-19T12:07:57.963Z,1.80
2022-11-19T12:11:19.953Z,1.63
2022-11-19T12:14:50.268Z,1.17
2022-11-19T12:18:07.568Z,2.05
2022-11-19T12:21:12.429Z,1.58
2022-11-19T12:24:34.748Z,1.98
2022-11-19T12:27:47.269Z,1.27
2022-11-19T12:31:13.684Z,1.80
2022-11-19T12:34:42.405Z,1.38
2022-11-19T12:38:04.913Z,1.95
2022-11-19T12:41:37.381Z,1.58
2022-11-19T12:44:51.364Z,3.25
2022-11-19T12:48:23.812Z,7.28
2022-11-19T12:51:44.578Z,2.17
2022-11-19T12:54:59.623Z,2.47
2022-11-19T12:58:04.476Z,2.42
2022-11-19T13:01:14.215Z,2.60
2022-11-19T13:04:52.054Z,2.58
2022-11-19T13:08:12.669Z,1.90
2022-11-19T13:11:26.400Z,1.60
2022-11-19T13:14:35.844Z,1.75
2022-11-19T13:17:44.652Z,1.48
2022-11-19T13:20:49.610Z,1.55
2022-11-19T13:23:53.647Z,1.77
2022-11-19T13:26:59.822Z,3.05
2022-11-19T13:30:09.074Z,3.35
2022-11-19T13:33:25.235Z,2.42
2022-11-19T13:36:42.910Z,2.17
2022-11-19T13:39:59.699Z,1.50
2022-11-19T13:43:36.469Z,1.75
2022-11-19T13:46:43.589Z,1.48
2022-11-19T13:49:51.265Z,1.60
2022-11-19T13:52:56.958Z,2.03
2022-11-19T13:55:59.820Z,1.90
2022-11-19T13:59:02.154Z,1.58
2022-11-19T14:02:37.777Z,2.20
2022-11-19T14:05:46.110Z,2.08
2022-11-19T14:09:06.304Z,3.20
2022-11-19T14:12:39.535Z,1.63
2022-11-19T14:16:10.219Z,1.30
2022-11-19T14:19:34.428Z,2.00
2022-11-19T14:23:02.166Z,1.52
2022-11-19T14:26:22.499Z,1.70
2022-11-19T14:29:27.352Z,1.13
2022-11-19T14:33:01.422Z,1.50
2022-11-19T14:36:11.722Z,1.17
2022-11-19T14:39:39.629Z,1.08
2022-11-19T14:43:18.987Z,2.13
2022-11-19T14:46:26.595Z,2.10
2022-11-19T14:49:38.058Z,1.95
2022-11-19T14:52:55.030Z,1.45
2022-11-19T14:55:58.605Z,2.22
2022-11-19T14:59:10.307Z,0.83
2022-11-19T15:02:33.731Z,1.42
2022-11-19T15:05:40.640Z,1.35
2022-11-19T15:08:51.268Z,2.10
2022-11-19T15:11:56.331Z,1.27
2022-11-19T15:15:21.363Z,1.63
2022-11-19T15:18:41.573Z,1.75
2022-11-19T15:21:44.814Z,1.38
2022-11-19T15:24:59.677Z,1.02
2022-11-19T15:31:24.959Z,1.38
2022-11-19T15:34:56.128Z,1.20
2022-11-19T15:38:36.141Z,1.38
2022-11-19T15:41:44.460Z,1.98
2022-11-19T15:45:04.935Z,1.10
2022-11-19T15:48:20.050Z,1.55
2022-11-19T15:51:22.766Z,1.00
2022-11-19T15:54:29.981Z,1.55
2022-11-19T15:57:32.100Z,1.85
2022-11-19T16:00:46.370Z,2.53
2022-11-19T16:03:52.337Z,2.50
2022-11-19T16:06:56.083Z,1.50
2022-11-19T16:09:59.792Z,1.33
2022-11-19T16:13:22.948Z,1.77
2022-11-19T16:16:50.360Z,1.30
2022-11-19T16:20:01.435Z,1.63
2022-11-19T16:23:10.662Z,1.70
2022-11-19T16:26:12.760Z,1.85
2022-11-19T16:29:23.929Z,1.42
2022-11-19T16:32:27.614Z,1.50
2022-11-19T16:35:32.781Z,1.83
2022-11-19T16:38:36.440Z,1.50
2022-11-19T16:41:57.072Z,2.33
2022-11-19T16:45:21.013Z,1.95
2022-11-19T16:48:50.596Z,3.03
2022-11-19T16:51:54.292Z,1.42
2022-11-19T16:54:56.261Z,1.17
2022-11-19T16:58:00.683Z,1.83
2022-11-19T17:01:03.601Z,2.75
2022-11-19T17:04:07.903Z,1.90
2022-11-19T17:07:14.691Z,1.17
2022-11-19T17:10:22.870Z,2.25
2022-11-19T17:13:32.447Z,1.38
2022-11-19T17:16:35.412Z,2.42
2022-11-19T17:19:37.384Z,2.50
2022-11-19T17:22:40.151Z,2.83
2022-11-19T17:25:57.442Z,4.32
2022-11-19T17:29:11.645Z,4.78
2022-11-19T17:32:13.712Z,5.85
2022-11-19T17:35:31.172Z,5.20
2022-11-19T17:38:34.280Z,5.00
2022-11-19T17:41:56.530Z,5.32
2022-11-19T17:45:02.698Z,3.20
2022-11-19T17:48:21.677Z,3.88
2022-11-19T17:51:25.603Z,4.88
2022-11-19T17:54:30.892Z,4.47
2022-11-19T17:57:32.957Z,4.93
2022-11-19T18:00:35.780Z,4.63
2022-11-19T18:03:39.229Z,4.72
2022-11-19T18:06:42.096Z,3.70
2022-11-19T18:09:44.942Z,4.22
2022-11-19T18:12:46.959Z,4.28
2022-11-19T18:15:50.840Z,4.43
2022-11-19T18:18:54.449Z,3.13
2022-11-19T18:21:57.094Z,3.40
2022-11-19T18:24:59.510Z,3.85
2022-11-19T18:28:02.751Z,3.03
2022-11-19T18:31:07.586Z,4.00
2022-11-19T18:34:19.371Z,3.22
2022-11-19T18:37:21.440Z,3.17
2022-11-19T18:40:23.403Z,4.93
2022-11-19T18:43:43.890Z,5.18
2022-11-19T18:46:45.986Z,3.92
2022-11-19T18:49:48.148Z,5.37
2022-11-19T18:52:50.168Z,4.63
2022-11-19T18:55:52.274Z,4.10
2022-11-19T18:58:59.204Z,3.83
2022-11-19T19:02:07.261Z,4.55
2022-11-19T19:05:09.614Z,4.35
2022-11-19T19:08:17.269Z,5.05
2022-11-19T19:11:40.154Z,6.07
2022-11-19T19:14:57.144Z,4.97
2022-11-19T19:18:07.920Z,5.27
2022-11-19T19:21:14.360Z,5.70
2022-11-19T19:24:16.573Z,6.30
2022-11-19T19:27:21.789Z,6.67
2022-11-19T19:30:26.688Z,4.97
2022-11-19T19:33:30.628Z,5.90
2022-11-19T19:36:34.784Z,7.03
2022-11-19T19:39:37.075Z,7.00
2022-11-19T19:42:41.425Z,5.67
2022-11-19T19:45:44.170Z,6.25
2022-11-19T19:48:52.380Z,7.43
2022-11-19T19:51:54.665Z,6.13
2022-11-19T19:54:56.678Z,6.23
2022-11-19T19:58:03.471Z,6.73
2022-11-19T20:01:10.589Z,6.23
2022-11-19T20:04:12.961Z,6.28
2022-11-19T20:07:15.186Z,7.75
2022-11-19T20:10:17.322Z,7.47
2022-11-19T20:13:28.565Z,7.60
2022-11-19T20:16:32.351Z,7.17
2022-11-19T20:19:34.562Z,6.00
2022-11-19T20:22:36.729Z,5.80
2022-11-19T20:25:39.046Z,5.67
2022-11-19T20:28:41.880Z,5.27
2022-11-19T20:31:48.409Z,5.20
2022-11-19T20:34:50.878Z,4.80
2022-11-19T20:37:54.294Z,4.87
2022-11-19T20:41:03.988Z,4.55
2022-11-19T20:44:26.026Z,5.57
2022-11-19T20:47:28.275Z,5.63
2022-11-19T20:50:30.343Z,5.20
2022-11-19T20:53:32.680Z,4.82
2022-11-19T20:56:36.120Z,5.72
2022-11-19T20:59:38.631Z,5.03
2022-11-19T21:02:40.873Z,4.60
2022-11-19T21:05:43.766Z,4.43
2022-11-19T21:08:45.934Z,5.20
2022-11-19T21:11:48.991Z,4.87
2022-11-19T21:14:51.242Z,4.30
2022-11-19T21:17:53.382Z,6.10
2022-11-19T21:21:01.860Z,5.73
2022-11-19T21:24:04.484Z,5.10
2022-11-19T21:27:06.548Z,4.37
2022-11-19T21:30:10.183Z,4.63
2022-11-19T21:33:12.466Z,5.10
2022-11-19T21:36:15.128Z,5.67
2022-11-19T21:39:18.901Z,4.87
2022-11-19T21:42:21.229Z,4.03
2022-11-19T21:45:23.293Z,4.43
2022-11-19T21:48:27.054Z,6.77
2022-11-19T21:51:29.326Z,3.37
2022-11-19T21:54:31.683Z,3.07
2022-11-19T21:57:33.927Z,2.60
2022-11-19T22:00:36.087Z,3.67
2022-11-19T22:03:38.844Z,3.47
2022-11-19T22:06:42.376Z,3.33
2022-11-19T22:10:02.983Z,3.00
2022-11-19T22:13:05.060Z,3.43
2022-11-19T22:16:07.437Z,3.67
2022-11-19T22:19:11.651Z,2.80
2022-11-19T22:22:14.846Z,3.53
2022-11-19T22:25:16.898Z,5.93
2022-11-19T22:28:20.107Z,4.37
2022-11-19T22:31:22.384Z,8.47
2022-11-19T22:34:25.224Z,9.27
2022-11-19T22:37:28.314Z,10.50
2022-11-19T22:40:31.033Z,10.03
2022-11-19T22:43:34.711Z,10.40
2022-11-19T22:46:36.754Z,11.00
2022-11-19T22:49:38.827Z,9.17
2022-11-19T22:52:43.078Z,6.70
2022-11-19T22:55:45.120Z,2.40
2022-11-19T22:58:48.975Z,3.43
2022-11-19T23:01:51.270Z,4.22
2022-11-19T23:04:53.343Z,4.53
2022-11-19T23:07:56.922Z,3.07
2022-11-19T23:11:04.104Z,3.47
2022-11-19T23:14:08.711Z,3.77
2022-11-19T23:20:14.978Z,2.37
2022-11-19T23:23:16.952Z,3.00
2022-11-19T23:26:21.632Z,2.50
2022-11-19T23:29:23.701Z,2.75
2022-11-19T23:32:25.802Z,2.83
2022-11-19T23:35:27.753Z,3.07
2022-11-19T23:38:29.880Z,2.00
2022-11-19T23:41:33.591Z,2.73
2022-11-19T23:44:35.644Z,2.10
2022-11-19T23:47:38.039Z,2.97
2022-11-19T23:50:40.098Z,2.13
2022-11-19T23:53:43.213Z,3.03
2022-11-19T23:56:45.251Z,2.40
2022-11-19T23:59:47.282Z,2.63
